Wetterdaten: aktuell Samstag, 15.08.2020 06:30
Datum Zeit Temp. A. Feuchte A. Luftdruck Regen Wind Richtung Richtung Sonnenschein Solar Windben
15.08.2020 06:30 17,2 C 93 % 1014,1 hPa 0,0 l/m 0,0 km/h (0 Bft) O-SO 113 0 min 39 W/m 0,0 km/h (0 Bft)
15.08.2020 05:30 16,7 C 93 % 1013,8 hPa 0,0 l/m 0,0 km/h (0 Bft) O-SO 113 0 min 12 W/m 0,0 km/h (0 Bft)
15.08.2020 04:30 16,7 C 93 % 1013,5 hPa 0,0 l/m 0,0 km/h (0 Bft) O-SO 113 0 min 0 W/m 0,0 km/h (0 Bft)
15.08.2020 03:15 16,5 C 93 % 1013,7 hPa 0,0 l/m 0,0 km/h (0 Bft) O-SO 113 0 min 0 W/m 0,0 km/h (0 Bft)
15.08.2020 02:15 16,7 C 93 % 1013,9 hPa 0,0 l/m 0,0 km/h (0 Bft) O-SO 113 0 min 0 W/m 0,0 km/h (0 Bft)
15.08.2020 01:15 17,3 C 92 % 1013,9 hPa 0,0 l/m 0,0 km/h (0 Bft) O-SO 113 0 min 0 W/m 0,0 km/h (0 Bft)
15.08.2020 00:15 17,6 C 92 % 1013,9 hPa 0,0 l/m 0,1 km/h (0 Bft) O-SO 114 0 min 0 W/m 1,6 km/h (1 Bft)
14.08.2020 23:15 17,8 C 91 % 1013,9 hPa 0,0 l/m 0,0 km/h (0 Bft) O-SO 113 0 min 0 W/m 0,0 km/h (0 Bft)
14.08.2020 22:15 18,0 C 92 % 1013,9 hPa 0,0 l/m 0,3 km/h (0 Bft) SO 128 0 min 0 W/m 4,8 km/h (1 Bft)
14.08.2020 21:15 18,3 C 91 % 1013,7 hPa 0,0 l/m 0,0 km/h (0 Bft) S-SO 161 0 min 0 W/m 0,0 km/h (0 Bft)
14.08.2020 20:15 18,3 C 90 % 1013,1 hPa 0,0 l/m 0,0 km/h (0 Bft) S-SO 161 0 min 0 W/m 0,0 km/h (0 Bft)
14.08.2020 19:15 18,6 C 88 % 1012,5 hPa 2,0 l/m 1,3 km/h (1 Bft) S 183 0 min 0 W/m 6,4 km/h (2 Bft)
14.08.2020 18:15 18,7 C 88 % 1012,7 hPa 1,8 l/m 4,4 km/h (1 Bft) S 175 0 min 5 W/m 12,9 km/h (3 Bft)
14.08.2020 17:15 20,4 C 83 % 1013,2 hPa 0,2 l/m 0,0 km/h (0 Bft) S-SW 209 0 min 0 W/m 3,2 km/h (1 Bft)
14.08.2020 16:15 23,0 C 72 % 1012,3 hPa 0,0 l/m 7,7 km/h (2 Bft) S-SO 156 0 min 46 W/m 19,3 km/h (3 Bft)
14.08.2020 15:15 26,6 C 57 % 1011,6 hPa 0,0 l/m 7,6 km/h (2 Bft) NO 42 45 min 450 W/m 19,3 km/h (3 Bft)
14.08.2020 14:15 27,3 C 58 % 1011,3 hPa 0,0 l/m 5,5 km/h (1 Bft) W-SW 250 0 min 278 W/m 14,5 km/h (3 Bft)
14.08.2020 13:15 28,7 C 54 % 1011,8 hPa 0,0 l/m 5,2 km/h (1 Bft) W 261 15 min 165 W/m 20,9 km/h (4 Bft)
14.08.2020 12:15 27,7 C 56 % 1012,2 hPa 0,0 l/m 3,6 km/h (1 Bft) N 360 60 min 740 W/m 12,9 km/h (3 Bft)
14.08.2020 11:15 29,7 C 55 % 1012,6 hPa 0,0 l/m 0,8 km/h (0 Bft) W-SW 242 60 min 630 W/m 8,0 km/h (2 Bft)
14.08.2020 10:15 27,1 C 62 % 1012,6 hPa 0,0 l/m 2,3 km/h (1 Bft) S 182 60 min 576 W/m 8,0 km/h (2 Bft)
14.08.2020 09:15 24,6 C 69 % 1012,9 hPa 0,0 l/m 1,4 km/h (1 Bft) S-SW 212 45 min 528 W/m 8,0 km/h (2 Bft)
14.08.2020 08:15 22,6 C 74 % 1013,0 hPa 0,0 l/m 2,1 km/h (1 Bft) W 260 0 min 218 W/m 9,7 km/h (2 Bft)
14.08.2020 07:15 21,7 C 76 % 1012,8 hPa 0,0 l/m 0,7 km/h (0 Bft) W-SW 256 0 min 146 W/m 6,4 km/h (2 Bft)
14.08.2020 07:00 21,4 C 77 % 1012,9 hPa 0,0 l/m 3,3 km/h (1 Bft) SW 230 0 min 103 W/m 9,7 km/h (2 Bft)
_ Min-Zeit 03:00 11:45 14:00 - 17:15 - - - - 17:30
Minimum _ 16,4 C 53 % 1011,2 hPa - 0,0 km/h (0 Bft) - - - - 0,0 km/h (0 Bft)
_ Max-Zeit 11:30 06:15 06:30 18:00 15:30 - - 08:30 12:00 15:45
Maximum _ 29,8 C 94 % 1014,1 hPa 0,8 l/m 9,4 km/h
O (2 Bft)
- - 15 min 781 W/m 27,4 km/h
O (4 Bft)
Durchschnitt _ 21,2 C 79 % 1013,0 hPa #4,0 l/m 2,0 km/h (1 Bft) O-SO - #0 min. 5 W/m 7,2 km/h (2 Bft)